Time;durP1;ratioP1;P1;durP2;ratioP2;P2;SDS_P1;SDS_P2;PMS_P1;PMS_P2;Temp;Humidity;BMP_temperature;BMP_pressure;BME280_temperature;BME280_humidity;BME280_pressure;Samples;Min_cycle;Max_cycle;Signal;HPM_P1;HPM_P2
2023/04/12 00:02:11;;;;;;;2.03;0.90;;;;;;;5.66;59.52;97499.03;12760488;23;20094;-77
2023/04/12 00:07:32;;;;;;;3.53;0.70;;;;;;;5.62;59.83;97498.00;12740279;23;20530;-77
2023/04/12 00:12:54;;;;;;;4.18;0.95;;;;;;;5.64;59.41;97487.81;12762498;23;20440;-78
2023/04/12 00:18:17;;;;;;;2.95;0.52;;;;;;;5.62;59.02;97465.50;12763408;23;20025;-77
2023/04/12 00:23:38;;;;;;;3.70;0.50;;;;;;;5.61;59.33;97461.25;12780039;23;20017;-77
2023/04/12 00:29:01;;;;;;;2.17;0.60;;;;;;;5.52;59.45;97461.91;12783155;23;20020;-77
2023/04/12 00:34:50;;;;;;;3.85;1.35;;;;;;;5.41;60.20;97468.63;12775403;23;20021;-78
2023/04/12 00:40:13;;;;;;;2.03;0.90;;;;;;;5.34;59.91;97436.22;12783359;23;20026;-77
2023/04/12 00:45:34;;;;;;;3.67;1.00;;;;;;;5.31;60.61;97442.16;12782552;23;20336;-77
2023/04/12 00:50:56;;;;;;;2.85;1.17;;;;;;;5.29;60.30;97437.16;12762337;23;20017;-77
2023/04/12 00:56:18;;;;;;;2.70;1.00;;;;;;;5.25;60.13;97434.06;12763313;23;20096;-77
2023/04/12 01:01:40;;;;;;;3.97;1.05;;;;;;;5.19;60.75;97428.03;12803032;23;20044;-77
2023/04/12 01:07:14;;;;;;;2.78;0.93;;;;;;;5.14;60.93;97429.00;12783870;23;20084;-78
2023/04/12 01:13:04;;;;;;;2.55;0.65;;;;;;;5.02;61.27;97414.16;12785989;23;20017;-77
2023/04/12 01:18:28;;;;;;;1.80;1.00;;;;;;;4.94;61.31;97407.97;12783460;23;20079;-77
2023/04/12 01:24:34;;;;;;;3.50;0.93;;;;;;;4.91;61.89;97401.50;12752779;23;20025;-78
2023/04/12 01:29:55;;;;;;;1.73;0.80;;;;;;;4.88;61.79;97408.19;12761775;23;20336;-77
2023/04/12 01:35:18;;;;;;;3.55;1.20;;;;;;;4.81;61.99;97406.94;12741932;23;20021;-77
2023/04/12 01:40:41;;;;;;;2.70;0.98;;;;;;;4.77;62.04;97405.88;12742585;23;20440;-78
2023/04/12 01:46:02;;;;;;;2.80;0.93;;;;;;;4.74;61.45;97387.66;12784200;23;20100;-77
2023/04/12 01:52:15;;;;;;;2.70;0.97;;;;;;;4.65;62.71;97385.50;12764956;23;20083;-78
2023/04/12 01:57:36;;;;;;;2.50;1.20;;;;;;;4.53;62.23;97390.72;12495899;23;20019;-77
2023/04/12 02:02:58;;;;;;;3.38;1.20;;;;;;;4.48;62.40;97377.88;12729074;23;20017;-77
2023/04/12 02:08:24;;;;;;;4.20;1.38;;;;;;;4.43;62.44;97376.03;12762763;23;20021;-77
2023/04/12 02:13:45;;;;;;;3.28;2.03;;;;;;;4.40;62.75;97377.91;12740627;23;20021;-78
2023/04/12 02:19:09;;;;;;;3.53;1.25;;;;;;;4.32;63.23;97364.13;12760373;23;20306;-77
2023/04/12 02:24:30;;;;;;;5.47;1.30;;;;;;;4.34;63.45;97354.53;12698796;23;20072;-77
2023/04/12 02:29:51;;;;;;;3.13;1.13;;;;;;;4.32;62.83;97344.06;12720458;23;20021;-77
2023/04/12 02:35:18;;;;;;;2.80;1.25;;;;;;;4.30;63.30;97341.84;12760742;23;20017;-77
2023/04/12 02:40:46;;;;;;;3.27;1.00;;;;;;;4.25;63.49;97337.28;12764521;23;20506;-77
2023/04/12 02:46:18;;;;;;;3.78;1.13;;;;;;;4.20;63.75;97332.72;12769024;23;20288;-78
2023/04/12 02:52:19;;;;;;;3.95;1.60;;;;;;;4.24;64.08;97333.03;12753777;23;20447;-80
2023/04/12 02:58:40;;;;;;;5.03;1.08;;;;;;;4.23;64.02;97331.56;12794223;23;20029;-78
2023/04/12 03:04:06;;;;;;;;;;;;;;;4.23;64.52;97323.28;12761067;23;20507;-77
2023/04/12 03:09:47;;;;;;;5.90;1.60;;;;;;;4.24;63.88;97324.75;12762535;23;19916;-77
2023/04/12 03:15:10;;;;;;;3.45;1.52;;;;;;;4.24;63.80;97321.25;12759747;23;20017;-78
2023/04/12 03:20:32;;;;;;;5.07;1.23;;;;;;;4.21;64.47;97312.06;12758919;23;20017;-77
2023/04/12 03:26:02;;;;;;;4.00;1.23;;;;;;;4.17;64.47;97306.22;12770148;23;20021;-77
2023/04/12 03:31:26;;;;;;;4.00;1.67;;;;;;;4.15;64.40;97308.81;12759625;23;20020;-77
2023/04/12 03:36:50;;;;;;;3.87;1.40;;;;;;;4.12;64.66;97298.88;12760381;23;20291;-78
2023/04/12 03:42:17;;;;;;;3.65;1.48;;;;;;;4.14;64.55;97290.75;12717293;23;20017;-78
2023/04/12 03:47:58;;;;;;;5.07;1.27;;;;;;;4.13;64.38;97277.50;12763569;23;20013;-78
2023/04/12 03:53:20;;;;;;;4.05;1.50;;;;;;;4.09;64.90;97283.44;12739905;23;20305;-78
2023/04/12 03:58:43;;;;;;;5.00;0.93;;;;;;;4.07;64.81;97285.28;12761234;23;20372;-78
2023/04/12 04:04:05;;;;;;;4.47;1.17;;;;;;;4.07;64.76;97277.75;12760784;23;20021;-79
2023/04/12 04:09:27;;;;;;;3.25;1.30;;;;;;;4.07;64.74;97274.25;12781539;23;20021;-78
2023/04/12 04:14:48;;;;;;;5.25;1.60;;;;;;;4.08;64.94;97279.19;12760661;23;20306;-79
2023/04/12 04:20:21;;;;;;;3.15;1.30;;;;;;;4.05;65.22;97280.31;12747823;23;20021;-79
2023/04/12 04:25:45;;;;;;;5.78;1.25;;;;;;;4.05;64.94;97276.81;12743135;23;20017;-78
2023/04/12 04:31:09;;;;;;;4.13;1.25;;;;;;;4.05;65.12;97277.53;12741110;23;20032;-78
2023/04/12 04:36:35;;;;;;;2.88;1.10;;;;;;;4.18;65.28;97282.81;12763049;23;20013;-78
2023/04/12 04:41:58;;;;;;;4.78;1.40;;;;;;;4.27;65.01;97276.69;12740813;23;20017;-79
2023/04/12 04:47:32;;;;;;;2.72;1.40;;;;;;;4.49;65.24;97291.63;12727858;23;20386;-78
2023/04/12 04:53:22;;;;;;;3.55;1.27;;;;;;;4.78;65.30;97288.44;12758058;23;20025;-79
2023/04/12 04:58:43;;;;;;;4.70;1.60;;;;;;;5.11;64.98;97289.75;12724525;23;20413;-78
2023/04/12 05:04:05;;;;;;;3.42;1.60;;;;;;;5.49;64.82;97287.88;12783613;23;20325;-79
2023/04/12 05:09:29;;;;;;;6.43;1.88;;;;;;;5.94;65.06;97281.78;12783574;23;20325;-79
2023/04/12 05:14:50;;;;;;;5.17;1.67;;;;;;;6.51;64.55;97288.19;12761418;23;20021;-78
2023/04/12 05:20:12;;;;;;;3.00;1.50;;;;;;;7.31;64.72;97280.88;12743094;23;20023;-78
2023/04/12 05:26:00;;;;;;;5.15;1.92;;;;;;;8.38;64.27;97282.16;12771723;23;20364;-78
2023/04/12 05:31:51;;;;;;;3.47;1.60;;;;;;;10.02;64.46;97286.56;12778561;23;20037;-78
2023/04/12 05:37:42;;;;;;;5.65;2.03;;;;;;;13.12;61.64;97275.94;12756317;23;20053;-79
2023/04/12 05:43:03;;;;;;;4.43;2.10;;;;;;;20.11;54.07;97266.22;12767643;23;20036;-81
2023/04/12 05:48:24;;;;;;;6.10;1.80;;;;;;;24.47;38.35;97278.13;12782854;23;20037;-77
2023/04/12 05:53:47;;;;;;;;;;;;;;;27.79;27.94;97269.22;12723976;23;20017;-77
2023/04/12 05:59:10;;;;;;;10.88;3.72;;;;;;;29.72;33.17;97266.28;12760573;23;19920;-80
2023/04/12 06:04:32;;;;;;;11.45;3.90;;;;;;;31.56;29.54;97256.25;12775817;23;20024;-80
2023/04/12 06:10:09;;;;;;;8.65;3.97;;;;;;;33.15;26.47;97226.03;12766534;23;20440;-80
2023/04/12 06:15:30;;;;;;;8.88;2.65;;;;;;;33.50;22.65;97230.78;12780081;23;20024;-80
2023/04/12 06:20:52;;;;;;;7.82;3.00;;;;;;;34.30;18.32;97220.16;12760026;23;20024;-79
2023/04/12 06:26:13;;;;;;;7.55;2.92;;;;;;;33.75;16.42;97225.59;12753564;23;20021;-80
2023/04/12 06:31:37;;;;;;;7.05;3.22;;;;;;;31.98;15.79;97215.59;12781544;23;20017;-80
2023/04/12 06:36:59;;;;;;;5.00;2.80;;;;;;;30.49;14.23;97216.72;12799483;23;20021;-80
2023/04/12 06:42:20;;;;;;;5.32;2.40;;;;;;;29.85;15.51;97201.38;12800694;23;20028;-80
2023/04/12 06:47:41;;;;;;;;;;;;;;;29.43;14.81;97188.38;12759710;23;20075;-79
2023/04/12 06:53:02;;;;;;;4.20;1.95;;;;;;;31.16;14.38;97185.78;12778832;23;19939;-80
2023/04/12 06:58:23;;;;;;;3.47;1.80;;;;;;;33.19;13.38;97182.53;12759256;23;20020;-80
2023/04/12 07:03:44;;;;;;;3.90;1.60;;;;;;;33.73;12.25;97170.69;12756133;23;20535;-81
2023/04/12 07:09:05;;;;;;;3.72;1.50;;;;;;;35.22;12.35;97168.88;12759339;23;20032;-81
2023/04/12 07:14:26;;;;;;;2.22;1.25;;;;;;;35.59;12.03;97155.13;12736632;23;20017;-81
2023/04/12 07:19:49;;;;;;;1.88;0.82;;;;;;;35.49;11.42;97144.63;12758324;23;20029;-82
2023/04/12 07:25:09;;;;;;;3.95;1.02;;;;;;;36.21;10.31;97142.31;12797680;23;20017;-82
2023/04/12 07:30:30;;;;;;;2.70;0.70;;;;;;;36.58;10.57;97147.91;12736987;23;20448;-82
2023/04/12 07:35:51;;;;;;;2.58;0.93;;;;;;;32.54;11.87;97144.03;12757050;23;20782;-82
2023/04/12 07:41:11;;;;;;;2.42;1.40;;;;;;;32.85;12.41;97123.63;12757141;23;20023;-82
2023/04/12 07:53:47;;;;;;;2.25;0.80;;;;;;;33.44;11.81;97118.88;12799909;23;20448;-82
2023/04/12 07:59:08;;;;;;;2.50;0.80;;;;;;;35.62;11.44;97121.63;12759358;23;20017;-82
2023/04/12 08:04:29;;;;;;;2.20;1.10;;;;;;;37.50;9.13;97111.56;12772223;23;20022;-82
2023/04/12 08:09:50;;;;;;;3.10;0.90;;;;;;;34.75;10.19;97126.53;12737384;23;20028;-82
2023/04/12 08:15:12;;;;;;;1.90;0.90;;;;;;;34.01;11.56;97101.75;12757617;23;20436;-82
2023/04/12 08:20:33;;;;;;;4.05;0.85;;;;;;;36.40;10.47;97102.25;12777620;23;20328;-82
2023/04/12 08:26:02;;;;;;;2.65;0.77;;;;;;;38.07;9.03;97102.84;12692993;23;20024;-82
2023/04/12 08:31:23;;;;;;;2.13;0.70;;;;;;;35.93;9.17;97086.91;12761905;23;20075;-82
2023/04/12 08:36:44;;;;;;;1.20;0.60;;;;;;;38.04;9.05;97081.16;12760644;23;20013;-82
2023/04/12 08:42:06;;;;;;;1.75;0.70;;;;;;;38.99;8.16;97071.63;12761909;23;20047;-82
2023/04/12 08:47:27;;;;;;;1.98;0.60;;;;;;;41.22;7.52;97062.41;12740981;23;20018;-80
2023/04/12 08:52:48;;;;;;;1.85;0.50;;;;;;;41.55;7.18;97058.69;12741121;23;20021;-82
2023/04/12 08:58:09;;;;;;;1.98;0.60;;;;;;;40.92;6.02;97059.22;12741119;23;20017;-84
2023/04/12 09:03:30;;;;;;;2.30;0.50;;;;;;;40.33;6.56;97035.13;12759227;23;20435;-84
2023/04/12 09:08:54;;;;;;;3.30;0.40;;;;;;;40.64;6.21;97020.81;12721289;23;20100;-90
2023/04/12 09:14:21;;;;;;;1.85;0.40;;;;;;;40.16;6.29;97028.22;12723457;23;20343;-85
2023/04/12 09:19:45;;;;;;;1.25;0.50;;;;;;;39.75;6.42;97001.47;12762900;23;20017;-85
2023/04/12 09:25:10;;;;;;;2.08;0.40;;;;;;;39.85;6.52;96983.31;12760324;23;20021;-84
2023/04/12 09:30:40;;;;;;;1.48;0.40;;;;;;;39.82;6.35;96993.06;12759936;23;20044;-85
2023/04/12 09:36:02;;;;;;;2.83;0.50;;;;;;;38.62;6.76;96951.22;12740459;23;20021;-85
2023/04/12 09:41:30;;;;;;;1.48;0.47;;;;;;;35.65;8.08;96943.72;12739893;23;20028;-84
2023/04/12 09:46:52;;;;;;;1.33;0.40;;;;;;;37.79;7.33;96965.94;12781018;23;20021;-85
2023/04/12 09:52:16;;;;;;;1.20;0.30;;;;;;;35.98;7.70;96936.44;12739479;23;20021;-84
2023/04/12 09:57:42;;;;;;;2.25;0.60;;;;;;;35.93;8.31;96941.72;12780879;23;20089;-84
2023/04/12 10:03:03;;;;;;;1.67;0.50;;;;;;;33.46;9.08;96930.06;12719144;23;20017;-85
2023/04/12 10:08:25;;;;;;;4.05;0.75;;;;;;;30.96;10.63;96929.81;12720149;23;20164;-85
2023/04/12 10:13:47;;;;;;;3.67;0.60;;;;;;;31.57;10.84;96911.59;12740060;23;20045;-85
2023/04/12 10:19:08;;;;;;;3.13;0.40;;;;;;;33.57;9.31;96894.22;12739708;23;20425;-85
2023/04/12 10:24:30;;;;;;;3.30;0.57;;;;;;;33.37;9.12;96889.19;12780046;23;20017;-85
2023/04/12 10:29:51;;;;;;;2.35;0.65;;;;;;;34.65;9.12;96903.78;12759837;23;20067;-85
2023/04/12 10:35:12;;;;;;;2.53;0.68;;;;;;;32.66;9.21;96880.78;12734645;23;20036;-85
2023/04/12 10:40:34;;;;;;;2.40;0.88;;;;;;;30.06;11.08;96871.53;12738942;23;20056;-85
2023/04/12 10:45:57;;;;;;;2.35;0.70;;;;;;;31.19;10.41;96867.25;12759709;23;20096;-85
2023/04/12 10:51:26;;;;;;;2.17;0.60;;;;;;;27.82;12.90;96849.16;12760073;23;20044;-83
2023/04/12 10:57:41;;;;;;;2.38;0.43;;;;;;;26.64;13.68;96833.41;12753714;23;20076;-83
2023/04/12 11:03:03;;;;;;;2.58;0.43;;;;;;;22.95;16.26;96820.06;12758336;23;20451;-83
2023/04/12 11:08:26;;;;;;;3.42;0.50;;;;;;;22.47;17.87;96815.53;12758496;23;20024;-82
2023/04/12 11:14:09;;;;;;;2.65;0.60;;;;;;;22.30;18.34;96813.31;12751349;23;20445;-83
2023/04/12 11:19:33;;;;;;;2.72;0.70;;;;;;;22.72;17.74;96787.25;12756843;23;20024;-84
2023/04/12 11:24:55;;;;;;;2.90;0.50;;;;;;;22.47;17.79;96775.72;12758234;23;20063;-84
2023/04/12 11:30:17;;;;;;;3.35;0.43;;;;;;;21.75;17.89;96787.28;12738490;23;20021;-83
2023/04/12 11:35:37;;;;;;;4.93;0.85;;;;;;;20.59;19.35;96769.72;12758747;23;20033;-81
2023/04/12 11:40:59;;;;;;;4.57;0.60;;;;;;;20.67;20.20;96764.16;12758234;23;20021;-82
2023/04/12 11:46:20;;;;;;;2.60;0.40;;;;;;;20.69;20.29;96760.63;12778936;23;20017;-82
2023/04/12 11:51:41;;;;;;;3.38;0.50;;;;;;;19.99;20.60;96753.28;12798913;23;20347;-83
2023/04/12 11:57:03;;;;;;;6.35;0.52;;;;;;;19.06;22.14;96761.59;12758498;23;20021;-84
2023/04/12 12:02:25;;;;;;;4.50;0.60;;;;;;;19.37;21.68;96743.06;12778421;23;20092;-83
2023/04/12 12:07:52;;;;;;;4.38;0.60;;;;;;;19.61;21.83;96725.09;12739937;23;20028;-84
2023/04/12 12:13:13;;;;;;;8.60;1.13;;;;;;;19.13;22.11;96720.72;12758246;23;20025;-85
